Bornholm Airport


Codes: EKRN/RNN
Name: Bornholm Airport
City: Ronne
Country: Denmark
Elevation: 52 ft.
Website:
Wikipedia:

Photos at Bornholm Airport


   Photos courtesy of SpottingLog. You can add your own sightings and photos by signing up for a free trial today.



No photos found.

Weather at Bornholm Airport


Time (UTC)DescriptionTempratureWindCloud coverageVisibilityPressureHumidity
23-May-2024 21:00Overcast Clouds13°C9 mph, W100%10000m1015hPa96%
24-May-2024 00:00Overcast Clouds12°C13 mph, W97%10000m1016hPa96%
24-May-2024 03:00Broken Clouds12°C11 mph, W66%10000m1018hPa94%
24-May-2024 06:00Broken Clouds11°C11 mph, W56%10000m1019hPa95%
24-May-2024 09:00Broken Clouds11°C9 mph, W84%10000m1021hPa95%
24-May-2024 12:00Overcast Clouds12°C7 mph, SW92%10000m1021hPa95%
24-May-2024 15:00Overcast Clouds13°C4 mph, W90%10000m1021hPa89%
24-May-2024 18:00Broken Clouds13°C0 mph, NW53%10000m1020hPa87%
24-May-2024 21:00Few Clouds13°C7 mph, E14%10000m1020hPa87%
25-May-2024 00:00Broken Clouds12°C9 mph, NE56%10000m1020hPa92%
25-May-2024 03:00Broken Clouds12°C11 mph, NE80%10000m1019hPa89%
25-May-2024 06:00Light Rain13°C13 mph, E90%4870m1018hPa95%
25-May-2024 09:00Light Rain12°C13 mph, E93%155m1019hPa98%
25-May-2024 12:00Overcast Clouds13°C11 mph, E87%5546m1019hPa97%
25-May-2024 15:00Light Rain14°C11 mph, E82%3514m1018hPa95%
25-May-2024 18:00Light Rain14°C11 mph, NE91%10000m1018hPa89%
25-May-2024 21:00Light Rain14°C9 mph, E42%10000m1018hPa84%
26-May-2024 00:00Light Rain14°C11 mph, E22%10000m1018hPa88%
26-May-2024 03:00Scattered Clouds13°C11 mph, E43%10000m1018hPa92%
26-May-2024 06:00Scattered Clouds13°C11 mph, E35%10000m1019hPa93%
26-May-2024 09:00Light Rain13°C11 mph, SE25%10000m1020hPa91%
26-May-2024 12:00Scattered Clouds13°C9 mph, E28%10000m1020hPa92%
26-May-2024 15:00Scattered Clouds15°C13 mph, E40%10000m1019hPa90%
26-May-2024 18:00Light Rain14°C11 mph, E44%10000m1019hPa96%
26-May-2024 21:00Light Rain14°C13 mph, SE100%10000m1019hPa88%
27-May-2024 00:00Overcast Clouds13°C11 mph, SE95%10000m1019hPa91%
27-May-2024 03:00Broken Clouds13°C11 mph, SE53%10000m1019hPa93%
27-May-2024 06:00Scattered Clouds12°C11 mph, SE32%4476m1019hPa97%
27-May-2024 09:00Broken Clouds12°C11 mph, N80%0m1019hPa98%
27-May-2024 12:00Broken Clouds13°C9 mph, SE84%1590m1019hPa97%
27-May-2024 15:00Light Rain13°C9 mph, SE93%1426m1018hPa97%
27-May-2024 18:00Overcast Clouds15°C9 mph, E97%10000m1017hPa92%
27-May-2024 21:00Light Rain15°C13 mph, S100%10000m1017hPa92%
28-May-2024 00:00Overcast Clouds13°C9 mph, SE100%10000m1016hPa92%
28-May-2024 03:00Light Rain13°C13 mph, SE96%10000m1015hPa95%
28-May-2024 06:00Light Rain13°C16 mph, SE88%10000m1015hPa89%
28-May-2024 09:00Scattered Clouds13°C16 mph, SE25%10000m1015hPa89%
28-May-2024 12:00Few Clouds14°C13 mph, SE23%10000m1014hPa79%
28-May-2024 15:00Clear Sky14°C11 mph, SE6%10000m1013hPa82%
28-May-2024 18:00Light Rain13°C16 mph, SW23%599m1014hPa99%